sensor_id;sensor_type;location;lat;lon;timestamp;temperature;humidity
52321;DHT22;38261;54.090;13.382;2024-01-30T00:01:20;4.00;99.90
52321;DHT22;38261;54.090;13.382;2024-01-30T00:02:43;4.10;99.90
52321;DHT22;38261;54.090;13.382;2024-01-30T00:04:05;4.00;99.90
52321;DHT22;38261;54.090;13.382;2024-01-30T00:05:27;4.10;99.90
52321;DHT22;38261;54.090;13.382;2024-01-30T00:06:50;4.00;99.90
52321;DHT22;38261;54.090;13.382;2024-01-30T00:08:13;4.00;99.90
52321;DHT22;38261;54.090;13.382;2024-01-30T00:09:35;4.00;99.90
52321;DHT22;38261;54.090;13.382;2024-01-30T00:10:57;4.00;99.90
52321;DHT22;38261;54.090;13.382;2024-01-30T00:12:19;4.00;99.90
52321;DHT22;38261;54.090;13.382;2024-01-30T00:13:42;4.00;99.90
52321;DHT22;38261;54.090;13.382;2024-01-30T00:15:04;4.00;99.90
52321;DHT22;38261;54.090;13.382;2024-01-30T00:16:27;4.00;99.90
52321;DHT22;38261;54.090;13.382;2024-01-30T00:17:49;3.90;99.90
52321;DHT22;38261;54.090;13.382;2024-01-30T00:19:14;3.90;99.90
52321;DHT22;38261;54.090;13.382;2024-01-30T00:20:36;3.90;99.90
52321;DHT22;38261;54.090;13.382;2024-01-30T00:21:58;3.90;99.90
52321;DHT22;38261;54.090;13.382;2024-01-30T00:23:20;3.90;99.90
52321;DHT22;38261;54.090;13.382;2024-01-30T00:24:42;3.90;99.90
52321;DHT22;38261;54.090;13.382;2024-01-30T00:26:05;3.80;99.90
52321;DHT22;38261;54.090;13.382;2024-01-30T00:27:28;3.90;99.90
52321;DHT22;38261;54.090;13.382;2024-01-30T00:28:50;3.90;99.90
52321;DHT22;38261;54.090;13.382;2024-01-30T00:30:12;3.90;99.90
52321;DHT22;38261;54.090;13.382;2024-01-30T00:31:35;3.90;99.90
52321;DHT22;38261;54.090;13.382;2024-01-30T00:33:01;3.90;99.90
52321;DHT22;38261;54.090;13.382;2024-01-30T00:34:23;3.90;99.90
52321;DHT22;38261;54.090;13.382;2024-01-30T00:35:45;3.90;99.90
52321;DHT22;38261;54.090;13.382;2024-01-30T00:37:07;3.90;99.90
52321;DHT22;38261;54.090;13.382;2024-01-30T00:38:30;3.80;99.90
52321;DHT22;38261;54.090;13.382;2024-01-30T00:39:52;3.90;99.90
52321;DHT22;38261;54.090;13.382;2024-01-30T00:41:14;3.80;99.90
52321;DHT22;38261;54.090;13.382;2024-01-30T00:42:39;3.90;99.90
52321;DHT22;38261;54.090;13.382;2024-01-30T00:44:01;3.90;99.90
52321;DHT22;38261;54.090;13.382;2024-01-30T00:45:23;3.80;99.90
52321;DHT22;38261;54.090;13.382;2024-01-30T00:46:45;3.80;99.90
52321;DHT22;38261;54.090;13.382;2024-01-30T00:48:08;3.80;99.90
52321;DHT22;38261;54.090;13.382;2024-01-30T00:49:30;3.80;99.90
52321;DHT22;38261;54.090;13.382;2024-01-30T00:50:52;3.80;99.90
52321;DHT22;38261;54.090;13.382;2024-01-30T00:52:15;3.80;99.90
52321;DHT22;38261;54.090;13.382;2024-01-30T00:53:37;3.80;99.90
52321;DHT22;38261;54.090;13.382;2024-01-30T00:55:00;3.80;99.90
52321;DHT22;38261;54.090;13.382;2024-01-30T00:56:22;3.70;99.90
52321;DHT22;38261;54.090;13.382;2024-01-30T00:57:45;3.70;99.90
52321;DHT22;38261;54.090;13.382;2024-01-30T00:59:09;3.70;99.90
52321;DHT22;38261;54.090;13.382;2024-01-30T01:00:32;3.70;99.90
52321;DHT22;38261;54.090;13.382;2024-01-30T01:01:54;3.60;99.90
52321;DHT22;38261;54.090;13.382;2024-01-30T01:03:16;3.60;99.90
52321;DHT22;38261;54.090;13.382;2024-01-30T01:04:39;3.60;99.90
52321;DHT22;38261;54.090;13.382;2024-01-30T01:06:01;3.60;99.90
52321;DHT22;38261;54.090;13.382;2024-01-30T01:07:23;3.60;99.90
52321;DHT22;38261;54.090;13.382;2024-01-30T01:08:45;3.60;99.90
52321;DHT22;38261;54.090;13.382;2024-01-30T01:10:07;3.60;99.90
52321;DHT22;38261;54.090;13.382;2024-01-30T01:11:30;3.60;99.90
52321;DHT22;38261;54.090;13.382;2024-01-30T01:12:53;3.60;99.90
52321;DHT22;38261;54.090;13.382;2024-01-30T01:14:15;3.60;99.90
52321;DHT22;38261;54.090;13.382;2024-01-30T01:15:37;3.60;99.90
52321;DHT22;38261;54.090;13.382;2024-01-30T01:17:00;3.60;99.90
52321;DHT22;38261;54.090;13.382;2024-01-30T01:18:22;3.60;99.90
52321;DHT22;38261;54.090;13.382;2024-01-30T01:19:44;3.50;99.90
52321;DHT22;38261;54.090;13.382;2024-01-30T01:21:06;3.50;99.90
52321;DHT22;38261;54.090;13.382;2024-01-30T01:22:29;3.50;99.90
52321;DHT22;38261;54.090;13.382;2024-01-30T01:23:51;3.50;99.90
52321;DHT22;38261;54.090;13.382;2024-01-30T01:25:13;3.50;99.90
52321;DHT22;38261;54.090;13.382;2024-01-30T01:26:35;3.50;99.90
52321;DHT22;38261;54.090;13.382;2024-01-30T01:27:57;3.40;99.90
52321;DHT22;38261;54.090;13.382;2024-01-30T01:29:20;3.40;99.90
52321;DHT22;38261;54.090;13.382;2024-01-30T01:30:42;3.40;99.90
52321;DHT22;38261;54.090;13.382;2024-01-30T01:32:05;3.40;99.90
52321;DHT22;38261;54.090;13.382;2024-01-30T01:33:27;3.40;99.90
52321;DHT22;38261;54.090;13.382;2024-01-30T01:34:49;3.40;99.90
52321;DHT22;38261;54.090;13.382;2024-01-30T01:36:13;3.40;99.90
52321;DHT22;38261;54.090;13.382;2024-01-30T01:37:35;3.40;99.90
52321;DHT22;38261;54.090;13.382;2024-01-30T01:38:57;3.40;99.90
52321;DHT22;38261;54.090;13.382;2024-01-30T01:40:23;3.40;99.90
52321;DHT22;38261;54.090;13.382;2024-01-30T01:41:46;3.40;99.90
52321;DHT22;38261;54.090;13.382;2024-01-30T01:43:08;3.40;99.90
52321;DHT22;38261;54.090;13.382;2024-01-30T01:44:31;3.40;99.90
52321;DHT22;38261;54.090;13.382;2024-01-30T01:45:53;3.30;99.90
52321;DHT22;38261;54.090;13.382;2024-01-30T01:47:15;3.30;99.90
52321;DHT22;38261;54.090;13.382;2024-01-30T01:48:38;3.30;99.90
52321;DHT22;38261;54.090;13.382;2024-01-30T01:50:02;3.30;99.90
52321;DHT22;38261;54.090;13.382;2024-01-30T01:51:27;3.30;99.90
52321;DHT22;38261;54.090;13.382;2024-01-30T01:52:50;3.30;99.90
52321;DHT22;38261;54.090;13.382;2024-01-30T01:54:14;3.30;99.90
52321;DHT22;38261;54.090;13.382;2024-01-30T01:55:37;3.20;99.90
52321;DHT22;38261;54.090;13.382;2024-01-30T01:57:00;3.20;99.90
52321;DHT22;38261;54.090;13.382;2024-01-30T01:58:22;3.20;99.90
52321;DHT22;38261;54.090;13.382;2024-01-30T01:59:45;3.20;99.90
52321;DHT22;38261;54.090;13.382;2024-01-30T02:01:08;3.20;99.90
52321;DHT22;38261;54.090;13.382;2024-01-30T02:02:30;3.20;99.90
52321;DHT22;38261;54.090;13.382;2024-01-30T02:03:55;3.20;99.90
52321;DHT22;38261;54.090;13.382;2024-01-30T02:05:18;3.20;99.90
52321;DHT22;38261;54.090;13.382;2024-01-30T02:06:40;3.20;99.90
52321;DHT22;38261;54.090;13.382;2024-01-30T02:08:03;3.20;99.90
52321;DHT22;38261;54.090;13.382;2024-01-30T02:09:26;3.10;99.90
52321;DHT22;38261;54.090;13.382;2024-01-30T02:10:48;3.20;99.90
52321;DHT22;38261;54.090;13.382;2024-01-30T02:12:10;3.20;99.90
52321;DHT22;38261;54.090;13.382;2024-01-30T02:13:33;3.20;99.90
52321;DHT22;38261;54.090;13.382;2024-01-30T02:14:55;3.20;99.90
52321;DHT22;38261;54.090;13.382;2024-01-30T02:16:17;3.20;99.90
52321;DHT22;38261;54.090;13.382;2024-01-30T02:17:39;3.20;99.90
52321;DHT22;38261;54.090;13.382;2024-01-30T02:19:02;3.20;99.90
52321;DHT22;38261;54.090;13.382;2024-01-30T02:20:25;3.30;99.90
52321;DHT22;38261;54.090;13.382;2024-01-30T02:21:50;3.30;99.90
52321;DHT22;38261;54.090;13.382;2024-01-30T02:23:12;3.20;99.90
52321;DHT22;38261;54.090;13.382;2024-01-30T02:24:34;3.20;99.90
52321;DHT22;38261;54.090;13.382;2024-01-30T02:25:57;3.30;99.90
52321;DHT22;38261;54.090;13.382;2024-01-30T02:27:19;3.20;99.90
52321;DHT22;38261;54.090;13.382;2024-01-30T02:28:41;3.30;99.90
52321;DHT22;38261;54.090;13.382;2024-01-30T02:30:03;3.20;99.90
52321;DHT22;38261;54.090;13.382;2024-01-30T02:31:26;3.20;99.90
52321;DHT22;38261;54.090;13.382;2024-01-30T02:32:48;3.20;99.90
52321;DHT22;38261;54.090;13.382;2024-01-30T02:34:10;3.20;99.90
52321;DHT22;38261;54.090;13.382;2024-01-30T02:35:33;3.20;99.90
52321;DHT22;38261;54.090;13.382;2024-01-30T02:36:56;3.20;99.90
52321;DHT22;38261;54.090;13.382;2024-01-30T02:38:18;3.20;99.90
52321;DHT22;38261;54.090;13.382;2024-01-30T02:39:40;3.10;99.90
52321;DHT22;38261;54.090;13.382;2024-01-30T02:41:02;3.10;99.90
52321;DHT22;38261;54.090;13.382;2024-01-30T02:42:25;3.10;99.90
52321;DHT22;38261;54.090;13.382;2024-01-30T02:43:47;3.10;99.90
52321;DHT22;38261;54.090;13.382;2024-01-30T02:45:09;3.10;99.90
52321;DHT22;38261;54.090;13.382;2024-01-30T02:46:32;3.10;99.90
52321;DHT22;38261;54.090;13.382;2024-01-30T02:47:54;3.10;99.90
52321;DHT22;38261;54.090;13.382;2024-01-30T02:49:16;3.10;99.90
52321;DHT22;38261;54.090;13.382;2024-01-30T02:50:39;3.00;99.90
52321;DHT22;38261;54.090;13.382;2024-01-30T02:52:01;3.00;99.90
52321;DHT22;38261;54.090;13.382;2024-01-30T02:53:23;3.00;99.90
52321;DHT22;38261;54.090;13.382;2024-01-30T02:54:45;3.00;99.90
52321;DHT22;38261;54.090;13.382;2024-01-30T02:56:07;3.00;99.90
52321;DHT22;38261;54.090;13.382;2024-01-30T02:57:31;3.00;99.90
52321;DHT22;38261;54.090;13.382;2024-01-30T02:58:54;3.00;99.90
52321;DHT22;38261;54.090;13.382;2024-01-30T03:00:16;3.00;99.90
52321;DHT22;38261;54.090;13.382;2024-01-30T03:01:44;3.00;99.90
52321;DHT22;38261;54.090;13.382;2024-01-30T03:03:07;2.90;99.90
52321;DHT22;38261;54.090;13.382;2024-01-30T03:04:29;2.90;99.90
52321;DHT22;38261;54.090;13.382;2024-01-30T03:05:52;3.00;99.90
52321;DHT22;38261;54.090;13.382;2024-01-30T03:07:14;2.90;99.90
52321;DHT22;38261;54.090;13.382;2024-01-30T03:08:36;3.00;99.90
52321;DHT22;38261;54.090;13.382;2024-01-30T03:09:59;3.00;99.90
52321;DHT22;38261;54.090;13.382;2024-01-30T03:11:21;3.00;99.90
52321;DHT22;38261;54.090;13.382;2024-01-30T03:12:43;3.00;99.90
52321;DHT22;38261;54.090;13.382;2024-01-30T03:14:05;2.90;99.90
52321;DHT22;38261;54.090;13.382;2024-01-30T03:15:27;3.00;99.90
52321;DHT22;38261;54.090;13.382;2024-01-30T03:16:50;3.00;99.90
52321;DHT22;38261;54.090;13.382;2024-01-30T03:18:12;3.00;99.90
52321;DHT22;38261;54.090;13.382;2024-01-30T03:19:34;3.00;99.90
52321;DHT22;38261;54.090;13.382;2024-01-30T03:20:57;3.00;99.90
52321;DHT22;38261;54.090;13.382;2024-01-30T03:22:19;3.00;99.90
52321;DHT22;38261;54.090;13.382;2024-01-30T03:23:41;3.00;99.90
52321;DHT22;38261;54.090;13.382;2024-01-30T03:25:03;3.10;99.90
52321;DHT22;38261;54.090;13.382;2024-01-30T03:26:26;3.00;99.90
52321;DHT22;38261;54.090;13.382;2024-01-30T03:27:48;3.00;99.90
52321;DHT22;38261;54.090;13.382;2024-01-30T03:29:11;3.00;99.90
52321;DHT22;38261;54.090;13.382;2024-01-30T03:30:34;3.00;99.90
52321;DHT22;38261;54.090;13.382;2024-01-30T03:31:56;3.00;99.90
52321;DHT22;38261;54.090;13.382;2024-01-30T03:33:18;3.00;99.90
52321;DHT22;38261;54.090;13.382;2024-01-30T03:34:40;3.00;99.90
52321;DHT22;38261;54.090;13.382;2024-01-30T03:36:04;3.00;99.90
52321;DHT22;38261;54.090;13.382;2024-01-30T03:37:26;3.00;99.90
52321;DHT22;38261;54.090;13.382;2024-01-30T03:38:49;3.10;99.90
52321;DHT22;38261;54.090;13.382;2024-01-30T03:40:11;3.00;99.90
52321;DHT22;38261;54.090;13.382;2024-01-30T03:41:33;3.00;99.90
52321;DHT22;38261;54.090;13.382;2024-01-30T03:42:55;3.00;99.90
52321;DHT22;38261;54.090;13.382;2024-01-30T03:44:18;3.00;99.90
52321;DHT22;38261;54.090;13.382;2024-01-30T03:45:40;3.00;99.90
52321;DHT22;38261;54.090;13.382;2024-01-30T03:47:02;3.10;99.90
52321;DHT22;38261;54.090;13.382;2024-01-30T03:48:25;3.10;99.90
52321;DHT22;38261;54.090;13.382;2024-01-30T03:49:47;3.00;99.90
52321;DHT22;38261;54.090;13.382;2024-01-30T03:51:09;3.00;99.90
52321;DHT22;38261;54.090;13.382;2024-01-30T03:52:36;3.00;99.90
52321;DHT22;38261;54.090;13.382;2024-01-30T03:53:58;3.00;99.90
52321;DHT22;38261;54.090;13.382;2024-01-30T03:55:21;3.00;99.90
52321;DHT22;38261;54.090;13.382;2024-01-30T03:56:43;3.00;99.90
52321;DHT22;38261;54.090;13.382;2024-01-30T03:58:05;3.00;99.90
52321;DHT22;38261;54.090;13.382;2024-01-30T03:59:28;3.00;99.90
52321;DHT22;38261;54.090;13.382;2024-01-30T04:00:50;3.00;99.90
52321;DHT22;38261;54.090;13.382;2024-01-30T04:02:12;3.00;99.90
52321;DHT22;38261;54.090;13.382;2024-01-30T04:03:34;3.00;99.90
52321;DHT22;38261;54.090;13.382;2024-01-30T04:04:57;3.00;99.90
52321;DHT22;38261;54.090;13.382;2024-01-30T04:06:19;3.10;99.90
52321;DHT22;38261;54.090;13.382;2024-01-30T04:07:41;3.10;99.90
52321;DHT22;38261;54.090;13.382;2024-01-30T04:09:03;3.10;99.90
52321;DHT22;38261;54.090;13.382;2024-01-30T04:10:26;3.10;99.90
52321;DHT22;38261;54.090;13.382;2024-01-30T04:11:48;3.20;99.90
52321;DHT22;38261;54.090;13.382;2024-01-30T04:13:10;3.20;99.90
52321;DHT22;38261;54.090;13.382;2024-01-30T04:14:33;3.30;99.90
52321;DHT22;38261;54.090;13.382;2024-01-30T04:15:55;3.30;99.90
52321;DHT22;38261;54.090;13.382;2024-01-30T04:17:18;3.30;99.90
52321;DHT22;38261;54.090;13.382;2024-01-30T04:18:40;3.40;99.90
52321;DHT22;38261;54.090;13.382;2024-01-30T04:20:03;3.50;99.90
52321;DHT22;38261;54.090;13.382;2024-01-30T04:21:25;3.50;99.90
52321;DHT22;38261;54.090;13.382;2024-01-30T04:22:47;3.60;99.90
52321;DHT22;38261;54.090;13.382;2024-01-30T04:24:10;3.60;99.90
52321;DHT22;38261;54.090;13.382;2024-01-30T04:25:32;3.70;99.90
52321;DHT22;38261;54.090;13.382;2024-01-30T04:26:54;3.70;99.90
52321;DHT22;38261;54.090;13.382;2024-01-30T04:28:16;3.70;99.90
52321;DHT22;38261;54.090;13.382;2024-01-30T04:29:38;3.80;99.90
52321;DHT22;38261;54.090;13.382;2024-01-30T04:31:00;3.80;99.90
52321;DHT22;38261;54.090;13.382;2024-01-30T04:32:23;3.90;99.90
52321;DHT22;38261;54.090;13.382;2024-01-30T04:33:45;3.90;99.90
52321;DHT22;38261;54.090;13.382;2024-01-30T04:35:07;3.90;99.90
52321;DHT22;38261;54.090;13.382;2024-01-30T04:36:33;4.00;99.90
52321;DHT22;38261;54.090;13.382;2024-01-30T04:37:55;4.00;99.90
52321;DHT22;38261;54.090;13.382;2024-01-30T04:39:17;4.00;99.90
52321;DHT22;38261;54.090;13.382;2024-01-30T04:40:39;4.00;99.90
52321;DHT22;38261;54.090;13.382;2024-01-30T04:42:01;4.10;99.90
52321;DHT22;38261;54.090;13.382;2024-01-30T04:43:25;4.10;99.90
52321;DHT22;38261;54.090;13.382;2024-01-30T04:44:49;4.10;99.90
52321;DHT22;38261;54.090;13.382;2024-01-30T04:46:11;4.10;99.90
52321;DHT22;38261;54.090;13.382;2024-01-30T04:47:33;4.20;99.90
52321;DHT22;38261;54.090;13.382;2024-01-30T04:48:55;4.20;99.90
52321;DHT22;38261;54.090;13.382;2024-01-30T04:50:18;4.20;99.90
52321;DHT22;38261;54.090;13.382;2024-01-30T04:51:40;4.30;99.90
52321;DHT22;38261;54.090;13.382;2024-01-30T04:53:03;4.30;99.90
52321;DHT22;38261;54.090;13.382;2024-01-30T04:54:25;4.30;99.90
52321;DHT22;38261;54.090;13.382;2024-01-30T04:55:47;4.40;99.90
52321;DHT22;38261;54.090;13.382;2024-01-30T04:57:09;4.40;99.90
52321;DHT22;38261;54.090;13.382;2024-01-30T04:58:34;4.40;99.90
52321;DHT22;38261;54.090;13.382;2024-01-30T04:59:56;4.40;99.90
52321;DHT22;38261;54.090;13.382;2024-01-30T05:01:18;4.40;99.90
52321;DHT22;38261;54.090;13.382;2024-01-30T05:02:40;4.40;99.90
52321;DHT22;38261;54.090;13.382;2024-01-30T05:04:03;4.40;99.90
52321;DHT22;38261;54.090;13.382;2024-01-30T05:05:25;4.40;99.90
52321;DHT22;38261;54.090;13.382;2024-01-30T05:06:48;4.40;99.90
52321;DHT22;38261;54.090;13.382;2024-01-30T05:08:10;4.30;99.90
52321;DHT22;38261;54.090;13.382;2024-01-30T05:09:32;4.30;99.90
52321;DHT22;38261;54.090;13.382;2024-01-30T05:10:54;4.20;99.90
52321;DHT22;38261;54.090;13.382;2024-01-30T05:12:16;4.20;99.90
52321;DHT22;38261;54.090;13.382;2024-01-30T05:13:39;4.20;99.90
52321;DHT22;38261;54.090;13.382;2024-01-30T05:15:01;4.10;99.90
52321;DHT22;38261;54.090;13.382;2024-01-30T05:16:23;4.10;99.90
52321;DHT22;38261;54.090;13.382;2024-01-30T05:17:45;4.00;99.90
52321;DHT22;38261;54.090;13.382;2024-01-30T05:19:07;4.00;99.90
52321;DHT22;38261;54.090;13.382;2024-01-30T05:20:30;3.90;99.90
52321;DHT22;38261;54.090;13.382;2024-01-30T05:21:52;3.90;99.90
52321;DHT22;38261;54.090;13.382;2024-01-30T05:23:14;3.90;99.90
52321;DHT22;38261;54.090;13.382;2024-01-30T05:24:37;3.80;99.90
52321;DHT22;38261;54.090;13.382;2024-01-30T05:25:59;3.80;99.90
52321;DHT22;38261;54.090;13.382;2024-01-30T05:27:23;3.80;99.90
52321;DHT22;38261;54.090;13.382;2024-01-30T05:28:45;3.80;99.90
52321;DHT22;38261;54.090;13.382;2024-01-30T05:30:07;3.70;99.90
52321;DHT22;38261;54.090;13.382;2024-01-30T05:31:30;3.70;99.90
52321;DHT22;38261;54.090;13.382;2024-01-30T05:32:52;3.70;99.90
52321;DHT22;38261;54.090;13.382;2024-01-30T05:34:16;3.60;99.90
52321;DHT22;38261;54.090;13.382;2024-01-30T05:35:38;3.60;99.90
52321;DHT22;38261;54.090;13.382;2024-01-30T05:37:00;3.60;99.90
52321;DHT22;38261;54.090;13.382;2024-01-30T05:38:23;3.60;99.90
52321;DHT22;38261;54.090;13.382;2024-01-30T05:39:45;3.60;99.90
52321;DHT22;38261;54.090;13.382;2024-01-30T05:41:08;3.60;99.90
52321;DHT22;38261;54.090;13.382;2024-01-30T05:42:30;3.60;99.90
52321;DHT22;38261;54.090;13.382;2024-01-30T05:43:52;3.50;99.90
52321;DHT22;38261;54.090;13.382;2024-01-30T05:45:15;3.50;99.90
52321;DHT22;38261;54.090;13.382;2024-01-30T05:46:37;3.50;99.90
52321;DHT22;38261;54.090;13.382;2024-01-30T05:47:59;3.40;99.90
52321;DHT22;38261;54.090;13.382;2024-01-30T05:49:21;3.40;99.90
52321;DHT22;38261;54.090;13.382;2024-01-30T05:50:44;3.40;99.90
52321;DHT22;38261;54.090;13.382;2024-01-30T05:52:07;3.40;99.90
52321;DHT22;38261;54.090;13.382;2024-01-30T05:53:29;3.30;99.90
52321;DHT22;38261;54.090;13.382;2024-01-30T05:54:52;3.30;99.90
52321;DHT22;38261;54.090;13.382;2024-01-30T05:56:14;3.30;99.90
52321;DHT22;38261;54.090;13.382;2024-01-30T05:57:37;3.30;99.90
52321;DHT22;38261;54.090;13.382;2024-01-30T05:58:59;3.30;99.90
52321;DHT22;38261;54.090;13.382;2024-01-30T06:00:22;3.30;99.90
52321;DHT22;38261;54.090;13.382;2024-01-30T06:01:47;3.30;99.90
52321;DHT22;38261;54.090;13.382;2024-01-30T06:03:10;3.30;99.90
52321;DHT22;38261;54.090;13.382;2024-01-30T06:04:32;3.30;99.90
52321;DHT22;38261;54.090;13.382;2024-01-30T06:05:55;3.30;99.90
52321;DHT22;38261;54.090;13.382;2024-01-30T06:07:17;3.30;99.90
52321;DHT22;38261;54.090;13.382;2024-01-30T06:08:40;3.30;99.90
52321;DHT22;38261;54.090;13.382;2024-01-30T06:10:02;3.30;99.90
52321;DHT22;38261;54.090;13.382;2024-01-30T06:11:25;3.30;99.90
52321;DHT22;38261;54.090;13.382;2024-01-30T06:12:47;3.30;99.90
52321;DHT22;38261;54.090;13.382;2024-01-30T06:14:10;3.30;99.90
52321;DHT22;38261;54.090;13.382;2024-01-30T06:15:32;3.20;99.90
52321;DHT22;38261;54.090;13.382;2024-01-30T06:16:54;3.30;99.90
52321;DHT22;38261;54.090;13.382;2024-01-30T06:18:17;3.30;99.90
52321;DHT22;38261;54.090;13.382;2024-01-30T06:19:39;3.20;99.90
52321;DHT22;38261;54.090;13.382;2024-01-30T06:21:01;3.20;99.90
52321;DHT22;38261;54.090;13.382;2024-01-30T06:22:23;3.30;99.90
52321;DHT22;38261;54.090;13.382;2024-01-30T06:23:46;3.20;99.90
52321;DHT22;38261;54.090;13.382;2024-01-30T06:25:08;3.20;99.90
52321;DHT22;38261;54.090;13.382;2024-01-30T06:26:30;3.20;99.90
52321;DHT22;38261;54.090;13.382;2024-01-30T06:27:53;3.20;99.90
52321;DHT22;38261;54.090;13.382;2024-01-30T06:29:15;3.30;99.90
52321;DHT22;38261;54.090;13.382;2024-01-30T06:30:41;3.20;99.90
52321;DHT22;38261;54.090;13.382;2024-01-30T06:32:04;3.20;99.90
52321;DHT22;38261;54.090;13.382;2024-01-30T06:33:26;3.30;99.90
52321;DHT22;38261;54.090;13.382;2024-01-30T06:34:48;3.30;99.90
52321;DHT22;38261;54.090;13.382;2024-01-30T06:36:10;3.20;99.90
52321;DHT22;38261;54.090;13.382;2024-01-30T06:37:32;3.20;99.90
52321;DHT22;38261;54.090;13.382;2024-01-30T06:38:55;3.20;99.90
52321;DHT22;38261;54.090;13.382;2024-01-30T06:40:17;3.20;99.90
52321;DHT22;38261;54.090;13.382;2024-01-30T06:41:39;3.20;99.90
52321;DHT22;38261;54.090;13.382;2024-01-30T06:43:01;3.20;99.90
52321;DHT22;38261;54.090;13.382;2024-01-30T06:44:23;3.20;99.90
52321;DHT22;38261;54.090;13.382;2024-01-30T06:45:45;3.10;99.90
52321;DHT22;38261;54.090;13.382;2024-01-30T06:47:08;3.20;99.90
52321;DHT22;38261;54.090;13.382;2024-01-30T06:48:30;3.10;99.90
52321;DHT22;38261;54.090;13.382;2024-01-30T06:49:52;3.20;99.90
52321;DHT22;38261;54.090;13.382;2024-01-30T06:51:14;3.10;99.90
52321;DHT22;38261;54.090;13.382;2024-01-30T06:52:39;3.10;99.90
52321;DHT22;38261;54.090;13.382;2024-01-30T06:54:01;3.10;99.90
52321;DHT22;38261;54.090;13.382;2024-01-30T06:55:23;3.10;99.90
52321;DHT22;38261;54.090;13.382;2024-01-30T06:56:46;3.10;99.90
52321;DHT22;38261;54.090;13.382;2024-01-30T06:58:08;3.10;99.90
52321;DHT22;38261;54.090;13.382;2024-01-30T06:59:31;3.10;99.90
52321;DHT22;38261;54.090;13.382;2024-01-30T07:00:54;3.00;99.90
52321;DHT22;38261;54.090;13.382;2024-01-30T07:02:16;3.10;99.90
52321;DHT22;38261;54.090;13.382;2024-01-30T07:03:39;3.00;99.90
52321;DHT22;38261;54.090;13.382;2024-01-30T07:05:01;3.00;99.90
52321;DHT22;38261;54.090;13.382;2024-01-30T07:06:24;3.00;99.90
52321;DHT22;38261;54.090;13.382;2024-01-30T07:07:47;3.00;99.90
52321;DHT22;38261;54.090;13.382;2024-01-30T07:09:09;3.00;99.90
52321;DHT22;38261;54.090;13.382;2024-01-30T07:10:31;3.00;99.90
52321;DHT22;38261;54.090;13.382;2024-01-30T07:11:54;3.00;99.90
52321;DHT22;38261;54.090;13.382;2024-01-30T07:13:17;3.00;99.90
52321;DHT22;38261;54.090;13.382;2024-01-30T07:14:39;3.00;99.90
52321;DHT22;38261;54.090;13.382;2024-01-30T07:16:02;3.00;99.90
52321;DHT22;38261;54.090;13.382;2024-01-30T07:17:24;3.00;99.90
52321;DHT22;38261;54.090;13.382;2024-01-30T07:18:46;3.00;99.90
52321;DHT22;38261;54.090;13.382;2024-01-30T07:20:09;3.10;99.90
52321;DHT22;38261;54.090;13.382;2024-01-30T07:21:33;3.10;99.90
52321;DHT22;38261;54.090;13.382;2024-01-30T07:22:56;3.10;99.90
52321;DHT22;38261;54.090;13.382;2024-01-30T07:24:18;3.10;99.90
52321;DHT22;38261;54.090;13.382;2024-01-30T07:25:41;3.10;99.90
52321;DHT22;38261;54.090;13.382;2024-01-30T07:27:03;3.10;99.90
52321;DHT22;38261;54.090;13.382;2024-01-30T07:28:25;3.20;99.90
52321;DHT22;38261;54.090;13.382;2024-01-30T07:29:47;3.20;99.90
52321;DHT22;38261;54.090;13.382;2024-01-30T07:31:10;3.20;99.90
52321;DHT22;38261;54.090;13.382;2024-01-30T07:32:32;3.30;99.90
52321;DHT22;38261;54.090;13.382;2024-01-30T07:33:54;3.30;99.90
52321;DHT22;38261;54.090;13.382;2024-01-30T07:35:16;3.30;99.90
52321;DHT22;38261;54.090;13.382;2024-01-30T07:36:39;3.40;99.90
52321;DHT22;38261;54.090;13.382;2024-01-30T07:38:01;3.40;99.90
52321;DHT22;38261;54.090;13.382;2024-01-30T07:39:23;3.40;99.90
52321;DHT22;38261;54.090;13.382;2024-01-30T07:40:45;3.50;99.90
52321;DHT22;38261;54.090;13.382;2024-01-30T07:42:07;3.50;99.90
52321;DHT22;38261;54.090;13.382;2024-01-30T07:43:33;3.50;99.90
52321;DHT22;38261;54.090;13.382;2024-01-30T07:44:55;3.50;99.90
52321;DHT22;38261;54.090;13.382;2024-01-30T07:46:18;3.60;99.90
52321;DHT22;38261;54.090;13.382;2024-01-30T07:47:40;3.60;99.90
52321;DHT22;38261;54.090;13.382;2024-01-30T07:49:04;3.60;99.90
52321;DHT22;38261;54.090;13.382;2024-01-30T07:50:26;3.60;99.90
52321;DHT22;38261;54.090;13.382;2024-01-30T07:51:49;3.60;99.90
52321;DHT22;38261;54.090;13.382;2024-01-30T07:53:11;3.70;99.90
52321;DHT22;38261;54.090;13.382;2024-01-30T07:54:33;3.70;99.90
52321;DHT22;38261;54.090;13.382;2024-01-30T07:55:56;3.70;99.90
52321;DHT22;38261;54.090;13.382;2024-01-30T07:57:18;3.70;99.90
52321;DHT22;38261;54.090;13.382;2024-01-30T07:58:40;3.70;99.90
52321;DHT22;38261;54.090;13.382;2024-01-30T08:00:02;3.70;99.90
52321;DHT22;38261;54.090;13.382;2024-01-30T08:01:25;3.70;99.90
52321;DHT22;38261;54.090;13.382;2024-01-30T08:02:47;3.70;99.90
52321;DHT22;38261;54.090;13.382;2024-01-30T08:04:09;3.70;99.90
52321;DHT22;38261;54.090;13.382;2024-01-30T08:05:32;3.70;99.90
52321;DHT22;38261;54.090;13.382;2024-01-30T08:06:54;3.70;99.90
52321;DHT22;38261;54.090;13.382;2024-01-30T08:08:16;3.70;99.90
52321;DHT22;38261;54.090;13.382;2024-01-30T08:09:38;3.70;99.90
52321;DHT22;38261;54.090;13.382;2024-01-30T08:11:00;3.70;99.90
52321;DHT22;38261;54.090;13.382;2024-01-30T08:12:22;3.70;99.90
52321;DHT22;38261;54.090;13.382;2024-01-30T08:13:45;3.70;99.90
52321;DHT22;38261;54.090;13.382;2024-01-30T08:15:07;3.70;99.90
52321;DHT22;38261;54.090;13.382;2024-01-30T08:16:29;3.70;99.90
52321;DHT22;38261;54.090;13.382;2024-01-30T08:17:52;3.80;99.90
52321;DHT22;38261;54.090;13.382;2024-01-30T08:19:19;3.80;99.90
52321;DHT22;38261;54.090;13.382;2024-01-30T08:20:41;3.80;99.90
52321;DHT22;38261;54.090;13.382;2024-01-30T08:22:03;3.90;99.90
52321;DHT22;38261;54.090;13.382;2024-01-30T08:23:26;3.90;99.90
52321;DHT22;38261;54.090;13.382;2024-01-30T08:24:48;3.90;99.90
52321;DHT22;38261;54.090;13.382;2024-01-30T08:26:10;4.00;99.90
52321;DHT22;38261;54.090;13.382;2024-01-30T08:27:34;4.00;99.90
52321;DHT22;38261;54.090;13.382;2024-01-30T08:28:57;4.00;99.90
52321;DHT22;38261;54.090;13.382;2024-01-30T08:30:20;4.10;99.90
52321;DHT22;38261;54.090;13.382;2024-01-30T08:31:42;4.10;99.90
52321;DHT22;38261;54.090;13.382;2024-01-30T08:33:04;4.10;99.90
52321;DHT22;38261;54.090;13.382;2024-01-30T08:34:26;4.20;99.90
52321;DHT22;38261;54.090;13.382;2024-01-30T08:35:49;4.20;99.90
52321;DHT22;38261;54.090;13.382;2024-01-30T08:37:11;4.20;99.90
52321;DHT22;38261;54.090;13.382;2024-01-30T08:38:33;4.20;99.90
52321;DHT22;38261;54.090;13.382;2024-01-30T08:39:56;4.30;99.90
52321;DHT22;38261;54.090;13.382;2024-01-30T08:41:18;4.30;99.90